Contern, Luxembourg
Current Conditions -  °F | °C
As of 2:20 AM on Friday 19 Dec 2014 (Local Time) from ELLX Reporting Station
NA  
Wind Chill: 43°   Ceiling: NA
Heat Index: 48°   Visibility: 3mi
Dew Point: 48°   Wind: 13mph
Humidity: 100%   Direction: 230°SW
Pressure: 30.06"   Gusts: NA
Location:  49.58°N, 6.23°E
Report Text: ELLX 190120Z AUTO 23011KT 190V260 5000 NDV 09/09 Q1018
Loading
Personal Weather Stations






























Interactive Weather Map New forecast layout! Learn more

10-Day Weather Forecast

Advertisements
Track Severe Weather on mobile